KDLS/DLS METAR and TAF weather

Enter ICAO airport designator
Station Type Date Time Source
KDLS METAR 2018/12/12 22:53 UTC NOAA

KDLS 122253Z AUTO 32006KT 10SM BKN060 OVC070 09/03 A3032 RMK AO2 SLP269 T00940033


Station Type Date Time Source
KDLS Decoded METAR 2018/12/12 22:53 UTC NOAA

THE DALLES MUNICIPAL AIRPORT , OR, United States (KDLS) 45-37N 121-10W 71M
Dec 12, 2018 - 05:53 PM EST / 2018.12.12 2253 UTC
Wind: from the NW (320 degrees) at 7 MPH (6 KT):0
Visibility: 10 mile(s):0
Sky conditions: overcast
Temperature: 48.9 F (9.4 C)
Dew Point: 37.9 F (3.3 C)
Relative Humidity: 65%
Pressure (altimeter): 30.32 in. Hg (1026 hPa)
ob: KDLS 122253Z AUTO 32006KT 10SM BKN060 OVC070 09/03 A3032 RMK AO2 SLP269 T00940033
cycle: 23

Station Type Date Time Source
KDLS TAF 2018/12/12 18:22 UTC NOAA

TAF KDLS 121720Z 1218/1318 30014G23KT P6SM SCT050 BKN250
FM122300 31006KT P6SM VCSH BKN060 OVC100
FM130400 VRB03KT P6SM VCSH BKN070 OVC100
FM131000 VRB03KT P6SM FEW100 SCT150


Example: see airport list